LFRS 101930Z AUTO 28001KT CAVOK 05/04 Q1030 NOSIG